sensor_id;sensor_type;location;lat;lon;timestamp;P1;durP1;ratioP1;P2;durP2;ratioP2
24435;SDS011;12616;52.470;13.436;2023-03-04T00:01:25;35.03;;;18.55;;
24435;SDS011;12616;52.470;13.436;2023-03-04T00:03:53;37.38;;;18.02;;
24435;SDS011;12616;52.470;13.436;2023-03-04T00:06:19;34.00;;;18.02;;
24435;SDS011;12616;52.470;13.436;2023-03-04T00:08:46;37.00;;;19.48;;
24435;SDS011;12616;52.470;13.436;2023-03-04T00:11:14;35.85;;;19.63;;
24435;SDS011;12616;52.470;13.436;2023-03-04T00:13:41;34.20;;;18.98;;
24435;SDS011;12616;52.470;13.436;2023-03-04T00:16:08;31.48;;;17.83;;
24435;SDS011;12616;52.470;13.436;2023-03-04T00:18:35;37.72;;;20.50;;
24435;SDS011;12616;52.470;13.436;2023-03-04T00:21:02;41.03;;;20.10;;
24435;SDS011;12616;52.470;13.436;2023-03-04T00:23:29;34.03;;;20.70;;
24435;SDS011;12616;52.470;13.436;2023-03-04T00:25:56;35.85;;;19.60;;
24435;SDS011;12616;52.470;13.436;2023-03-04T00:28:25;31.27;;;18.27;;
24435;SDS011;12616;52.470;13.436;2023-03-04T00:30:52;32.22;;;17.58;;
24435;SDS011;12616;52.470;13.436;2023-03-04T00:33:18;32.80;;;17.58;;
24435;SDS011;12616;52.470;13.436;2023-03-04T00:35:45;27.88;;;17.58;;
24435;SDS011;12616;52.470;13.436;2023-03-04T00:38:12;37.13;;;18.15;;
24435;SDS011;12616;52.470;13.436;2023-03-04T00:40:39;36.15;;;17.95;;
24435;SDS011;12616;52.470;13.436;2023-03-04T00:43:06;34.97;;;17.90;;
24435;SDS011;12616;52.470;13.436;2023-03-04T00:45:34;30.40;;;16.65;;
24435;SDS011;12616;52.470;13.436;2023-03-04T00:48:01;31.92;;;16.08;;
24435;SDS011;12616;52.470;13.436;2023-03-04T00:50:28;35.30;;;17.00;;
24435;SDS011;12616;52.470;13.436;2023-03-04T00:52:55;25.88;;;15.02;;
24435;SDS011;12616;52.470;13.436;2023-03-04T00:55:21;38.78;;;16.60;;
24435;SDS011;12616;52.470;13.436;2023-03-04T00:57:48;25.48;;;14.38;;
24435;SDS011;12616;52.470;13.436;2023-03-04T01:00:15;25.50;;;15.13;;
24435;SDS011;12616;52.470;13.436;2023-03-04T01:02:44;30.08;;;14.75;;
24435;SDS011;12616;52.470;13.436;2023-03-04T01:05:11;39.35;;;17.17;;
24435;SDS011;12616;52.470;13.436;2023-03-04T01:07:38;28.58;;;16.10;;
24435;SDS011;12616;52.470;13.436;2023-03-04T01:10:06;28.67;;;14.45;;
24435;SDS011;12616;52.470;13.436;2023-03-04T01:12:34;25.35;;;14.98;;
24435;SDS011;12616;52.470;13.436;2023-03-04T01:15:01;32.33;;;14.60;;
24435;SDS011;12616;52.470;13.436;2023-03-04T01:17:28;32.50;;;14.57;;
24435;SDS011;12616;52.470;13.436;2023-03-04T01:19:56;27.25;;;14.65;;
24435;SDS011;12616;52.470;13.436;2023-03-04T01:22:23;30.90;;;13.80;;
24435;SDS011;12616;52.470;13.436;2023-03-04T01:24:50;32.40;;;12.75;;
24435;SDS011;12616;52.470;13.436;2023-03-04T01:27:17;29.98;;;15.68;;
24435;SDS011;12616;52.470;13.436;2023-03-04T01:29:44;28.80;;;14.05;;
24435;SDS011;12616;52.470;13.436;2023-03-04T01:32:11;27.02;;;13.52;;
24435;SDS011;12616;52.470;13.436;2023-03-04T01:34:37;29.70;;;14.30;;
24435;SDS011;12616;52.470;13.436;2023-03-04T01:37:06;25.52;;;13.48;;
24435;SDS011;12616;52.470;13.436;2023-03-04T01:39:33;24.60;;;12.02;;
24435;SDS011;12616;52.470;13.436;2023-03-04T01:42:00;26.30;;;12.57;;
24435;SDS011;12616;52.470;13.436;2023-03-04T01:44:27;21.17;;;11.32;;
24435;SDS011;12616;52.470;13.436;2023-03-04T01:46:54;28.38;;;11.85;;
24435;SDS011;12616;52.470;13.436;2023-03-04T01:49:21;24.52;;;11.10;;
24435;SDS011;12616;52.470;13.436;2023-03-04T01:51:49;21.23;;;10.90;;
24435;SDS011;12616;52.470;13.436;2023-03-04T01:54:19;22.10;;;11.60;;
24435;SDS011;12616;52.470;13.436;2023-03-04T01:56:47;28.52;;;10.45;;
24435;SDS011;12616;52.470;13.436;2023-03-04T01:59:17;21.50;;;11.02;;
24435;SDS011;12616;52.470;13.436;2023-03-04T02:01:45;17.40;;;9.30;;
24435;SDS011;12616;52.470;13.436;2023-03-04T02:04:14;20.63;;;11.73;;
24435;SDS011;12616;52.470;13.436;2023-03-04T02:06:42;25.52;;;9.85;;
24435;SDS011;12616;52.470;13.436;2023-03-04T02:09:10;23.98;;;10.70;;
24435;SDS011;12616;52.470;13.436;2023-03-04T02:11:38;21.20;;;8.60;;
24435;SDS011;12616;52.470;13.436;2023-03-04T02:14:06;22.52;;;8.73;;
24435;SDS011;12616;52.470;13.436;2023-03-04T02:16:35;21.23;;;11.55;;
24435;SDS011;12616;52.470;13.436;2023-03-04T02:19:03;16.95;;;10.60;;
24435;SDS011;12616;52.470;13.436;2023-03-04T02:21:32;22.85;;;8.95;;
24435;SDS011;12616;52.470;13.436;2023-03-04T02:24:02;16.50;;;7.68;;
24435;SDS011;12616;52.470;13.436;2023-03-04T02:26:35;30.75;;;9.55;;
24435;SDS011;12616;52.470;13.436;2023-03-04T02:29:03;24.20;;;9.25;;
24435;SDS011;12616;52.470;13.436;2023-03-04T02:31:31;20.92;;;9.15;;
24435;SDS011;12616;52.470;13.436;2023-03-04T02:34:00;13.75;;;8.32;;
24435;SDS011;12616;52.470;13.436;2023-03-04T02:36:30;16.95;;;7.65;;
24435;SDS011;12616;52.470;13.436;2023-03-04T02:39:00;21.88;;;8.70;;
24435;SDS011;12616;52.470;13.436;2023-03-04T02:41:29;12.68;;;7.40;;
24435;SDS011;12616;52.470;13.436;2023-03-04T02:43:57;22.17;;;7.85;;
24435;SDS011;12616;52.470;13.436;2023-03-04T02:46:24;24.67;;;7.28;;
24435;SDS011;12616;52.470;13.436;2023-03-04T02:48:51;16.27;;;7.47;;
24435;SDS011;12616;52.470;13.436;2023-03-04T02:51:18;13.18;;;6.90;;
24435;SDS011;12616;52.470;13.436;2023-03-04T02:53:45;18.13;;;6.82;;
24435;SDS011;12616;52.470;13.436;2023-03-04T02:56:12;22.52;;;8.63;;
24435;SDS011;12616;52.470;13.436;2023-03-04T02:58:39;19.27;;;7.60;;
24435;SDS011;12616;52.470;13.436;2023-03-04T03:01:07;21.77;;;7.50;;
24435;SDS011;12616;52.470;13.436;2023-03-04T03:03:34;12.13;;;6.55;;
24435;SDS011;12616;52.470;13.436;2023-03-04T03:06:01;13.45;;;7.10;;
24435;SDS011;12616;52.470;13.436;2023-03-04T03:08:28;14.98;;;6.60;;
24435;SDS011;12616;52.470;13.436;2023-03-04T03:10:55;13.27;;;6.25;;
24435;SDS011;12616;52.470;13.436;2023-03-04T03:13:21;15.93;;;8.18;;
24435;SDS011;12616;52.470;13.436;2023-03-04T03:15:49;25.00;;;8.13;;
24435;SDS011;12616;52.470;13.436;2023-03-04T03:18:17;9.75;;;6.20;;
24435;SDS011;12616;52.470;13.436;2023-03-04T03:20:44;24.60;;;7.63;;
24435;SDS011;12616;52.470;13.436;2023-03-04T03:23:11;15.75;;;9.10;;
24435;SDS011;12616;52.470;13.436;2023-03-04T03:25:38;23.02;;;7.63;;
24435;SDS011;12616;52.470;13.436;2023-03-04T03:28:05;13.02;;;6.05;;
24435;SDS011;12616;52.470;13.436;2023-03-04T03:30:32;16.77;;;7.82;;
24435;SDS011;12616;52.470;13.436;2023-03-04T03:32:58;22.17;;;7.18;;
24435;SDS011;12616;52.470;13.436;2023-03-04T03:35:27;15.98;;;6.78;;
24435;SDS011;12616;52.470;13.436;2023-03-04T03:37:54;12.15;;;7.30;;
24435;SDS011;12616;52.470;13.436;2023-03-04T03:40:20;12.48;;;6.88;;
24435;SDS011;12616;52.470;13.436;2023-03-04T03:42:47;13.82;;;6.82;;
24435;SDS011;12616;52.470;13.436;2023-03-04T03:45:14;20.23;;;7.60;;
24435;SDS011;12616;52.470;13.436;2023-03-04T03:47:41;17.58;;;7.15;;
24435;SDS011;12616;52.470;13.436;2023-03-04T03:50:08;17.25;;;6.75;;
24435;SDS011;12616;52.470;13.436;2023-03-04T03:52:37;17.70;;;7.00;;
24435;SDS011;12616;52.470;13.436;2023-03-04T03:55:04;16.80;;;6.65;;
24435;SDS011;12616;52.470;13.436;2023-03-04T03:57:31;14.23;;;7.00;;
24435;SDS011;12616;52.470;13.436;2023-03-04T03:59:58;17.13;;;6.90;;
24435;SDS011;12616;52.470;13.436;2023-03-04T04:02:25;23.05;;;7.82;;
24435;SDS011;12616;52.470;13.436;2023-03-04T04:04:52;13.55;;;6.63;;
24435;SDS011;12616;52.470;13.436;2023-03-04T04:07:19;18.50;;;6.78;;
24435;SDS011;12616;52.470;13.436;2023-03-04T04:09:47;20.80;;;7.10;;
24435;SDS011;12616;52.470;13.436;2023-03-04T04:12:14;17.40;;;6.95;;
24435;SDS011;12616;52.470;13.436;2023-03-04T04:14:42;13.85;;;5.78;;
24435;SDS011;12616;52.470;13.436;2023-03-04T04:17:09;12.55;;;6.85;;
24435;SDS011;12616;52.470;13.436;2023-03-04T04:19:37;20.00;;;5.80;;
24435;SDS011;12616;52.470;13.436;2023-03-04T04:22:05;15.13;;;6.13;;
24435;SDS011;12616;52.470;13.436;2023-03-04T04:24:32;15.60;;;8.38;;
24435;SDS011;12616;52.470;13.436;2023-03-04T04:27:01;21.75;;;6.70;;
24435;SDS011;12616;52.470;13.436;2023-03-04T04:29:28;11.60;;;6.55;;
24435;SDS011;12616;52.470;13.436;2023-03-04T04:31:55;14.43;;;6.10;;
24435;SDS011;12616;52.470;13.436;2023-03-04T04:34:22;13.23;;;6.35;;
24435;SDS011;12616;52.470;13.436;2023-03-04T04:36:49;18.80;;;8.27;;
24435;SDS011;12616;52.470;13.436;2023-03-04T04:39:16;13.30;;;6.80;;
24435;SDS011;12616;52.470;13.436;2023-03-04T04:41:43;13.25;;;6.00;;
24435;SDS011;12616;52.470;13.436;2023-03-04T04:44:12;10.70;;;5.20;;
24435;SDS011;12616;52.470;13.436;2023-03-04T04:46:39;14.15;;;5.75;;
24435;SDS011;12616;52.470;13.436;2023-03-04T04:49:07;16.27;;;6.18;;
24435;SDS011;12616;52.470;13.436;2023-03-04T04:51:34;21.42;;;6.32;;
24435;SDS011;12616;52.470;13.436;2023-03-04T04:54:03;11.25;;;5.47;;
24435;SDS011;12616;52.470;13.436;2023-03-04T04:56:30;13.32;;;5.80;;
24435;SDS011;12616;52.470;13.436;2023-03-04T04:58:58;11.02;;;4.97;;
24435;SDS011;12616;52.470;13.436;2023-03-04T05:01:29;16.27;;;6.93;;
24435;SDS011;12616;52.470;13.436;2023-03-04T05:03:56;15.95;;;4.88;;
24435;SDS011;12616;52.470;13.436;2023-03-04T05:06:23;11.73;;;4.90;;
24435;SDS011;12616;52.470;13.436;2023-03-04T05:08:50;17.13;;;6.13;;
24435;SDS011;12616;52.470;13.436;2023-03-04T05:11:17;14.43;;;5.10;;
24435;SDS011;12616;52.470;13.436;2023-03-04T05:13:45;19.70;;;5.80;;
24435;SDS011;12616;52.470;13.436;2023-03-04T05:16:13;12.82;;;5.18;;
24435;SDS011;12616;52.470;13.436;2023-03-04T05:18:41;18.92;;;6.38;;
24435;SDS011;12616;52.470;13.436;2023-03-04T05:21:08;13.80;;;6.10;;
24435;SDS011;12616;52.470;13.436;2023-03-04T05:23:36;22.60;;;6.88;;
24435;SDS011;12616;52.470;13.436;2023-03-04T05:26:04;15.57;;;7.28;;
24435;SDS011;12616;52.470;13.436;2023-03-04T05:28:33;12.40;;;5.30;;
24435;SDS011;12616;52.470;13.436;2023-03-04T05:31:01;27.65;;;10.63;;
24435;SDS011;12616;52.470;13.436;2023-03-04T05:33:28;17.52;;;10.05;;
24435;SDS011;12616;52.470;13.436;2023-03-04T05:35:56;18.95;;;7.47;;
24435;SDS011;12616;52.470;13.436;2023-03-04T05:38:23;19.00;;;8.65;;
24435;SDS011;12616;52.470;13.436;2023-03-04T05:40:54;14.45;;;6.90;;
24435;SDS011;12616;52.470;13.436;2023-03-04T05:43:23;15.10;;;5.30;;
24435;SDS011;12616;52.470;13.436;2023-03-04T05:45:50;27.10;;;10.05;;
24435;SDS011;12616;52.470;13.436;2023-03-04T05:48:17;12.57;;;8.95;;
24435;SDS011;12616;52.470;13.436;2023-03-04T05:50:44;24.40;;;11.65;;
24435;SDS011;12616;52.470;13.436;2023-03-04T05:53:13;13.00;;;4.90;;
24435;SDS011;12616;52.470;13.436;2023-03-04T05:55:39;7.65;;;5.57;;
24435;SDS011;12616;52.470;13.436;2023-03-04T05:58:11;11.10;;;5.40;;
24435;SDS011;12616;52.470;13.436;2023-03-04T06:00:38;12.02;;;5.60;;
24435;SDS011;12616;52.470;13.436;2023-03-04T06:03:04;7.15;;;5.45;;
24435;SDS011;12616;52.470;13.436;2023-03-04T06:05:31;16.15;;;4.03;;
24435;SDS011;12616;52.470;13.436;2023-03-04T06:07:58;21.15;;;4.45;;
24435;SDS011;12616;52.470;13.436;2023-03-04T06:10:26;8.77;;;3.72;;
24435;SDS011;12616;52.470;13.436;2023-03-04T06:12:53;9.35;;;3.53;;
24435;SDS011;12616;52.470;13.436;2023-03-04T06:15:20;12.77;;;3.85;;
24435;SDS011;12616;52.470;13.436;2023-03-04T06:17:47;13.70;;;4.28;;
24435;SDS011;12616;52.470;13.436;2023-03-04T06:20:13;8.45;;;3.50;;
24435;SDS011;12616;52.470;13.436;2023-03-04T06:22:40;11.68;;;3.85;;
24435;SDS011;12616;52.470;13.436;2023-03-04T06:25:07;15.00;;;4.70;;
24435;SDS011;12616;52.470;13.436;2023-03-04T06:27:36;15.02;;;3.90;;
24435;SDS011;12616;52.470;13.436;2023-03-04T06:30:03;5.25;;;3.20;;
24435;SDS011;12616;52.470;13.436;2023-03-04T06:32:31;9.80;;;3.90;;
24435;SDS011;12616;52.470;13.436;2023-03-04T06:34:57;12.52;;;3.78;;
24435;SDS011;12616;52.470;13.436;2023-03-04T06:37:24;7.10;;;4.35;;
24435;SDS011;12616;52.470;13.436;2023-03-04T06:39:51;9.43;;;3.55;;
24435;SDS011;12616;52.470;13.436;2023-03-04T06:42:18;9.25;;;4.70;;
24435;SDS011;12616;52.470;13.436;2023-03-04T06:44:48;6.35;;;3.75;;
24435;SDS011;12616;52.470;13.436;2023-03-04T06:47:15;12.82;;;4.65;;
24435;SDS011;12616;52.470;13.436;2023-03-04T06:49:42;6.80;;;4.15;;
24435;SDS011;12616;52.470;13.436;2023-03-04T06:52:09;15.80;;;3.90;;
24435;SDS011;12616;52.470;13.436;2023-03-04T06:54:37;4.53;;;3.15;;
24435;SDS011;12616;52.470;13.436;2023-03-04T06:57:04;7.47;;;3.78;;
24435;SDS011;12616;52.470;13.436;2023-03-04T06:59:31;13.90;;;3.92;;
24435;SDS011;12616;52.470;13.436;2023-03-04T07:01:59;10.43;;;4.10;;
24435;SDS011;12616;52.470;13.436;2023-03-04T07:04:26;6.88;;;3.90;;
24435;SDS011;12616;52.470;13.436;2023-03-04T07:06:53;7.35;;;3.90;;
24435;SDS011;12616;52.470;13.436;2023-03-04T07:09:20;8.82;;;4.30;;
24435;SDS011;12616;52.470;13.436;2023-03-04T07:11:47;12.05;;;4.70;;
24435;SDS011;12616;52.470;13.436;2023-03-04T07:14:13;8.88;;;3.80;;
24435;SDS011;12616;52.470;13.436;2023-03-04T07:16:40;9.55;;;5.03;;
24435;SDS011;12616;52.470;13.436;2023-03-04T07:19:08;6.70;;;4.47;;
24435;SDS011;12616;52.470;13.436;2023-03-04T07:21:35;11.25;;;4.53;;
24435;SDS011;12616;52.470;13.436;2023-03-04T07:24:03;8.68;;;4.20;;
24435;SDS011;12616;52.470;13.436;2023-03-04T07:26:30;5.00;;;3.58;;
24435;SDS011;12616;52.470;13.436;2023-03-04T07:28:57;12.52;;;4.72;;
24435;SDS011;12616;52.470;13.436;2023-03-04T07:31:25;8.63;;;3.88;;
24435;SDS011;12616;52.470;13.436;2023-03-04T07:33:55;5.10;;;3.13;;
24435;SDS011;12616;52.470;13.436;2023-03-04T07:36:24;6.90;;;3.95;;
24435;SDS011;12616;52.470;13.436;2023-03-04T07:38:51;8.73;;;3.50;;
24435;SDS011;12616;52.470;13.436;2023-03-04T07:41:23;6.93;;;3.80;;
24435;SDS011;12616;52.470;13.436;2023-03-04T07:43:51;5.65;;;4.25;;
24435;SDS011;12616;52.470;13.436;2023-03-04T07:46:18;8.00;;;3.97;;
24435;SDS011;12616;52.470;13.436;2023-03-04T07:48:45;6.60;;;3.60;;
24435;SDS011;12616;52.470;13.436;2023-03-04T07:51:13;9.43;;;4.47;;
24435;SDS011;12616;52.470;13.436;2023-03-04T07:53:43;7.55;;;3.50;;
24435;SDS011;12616;52.470;13.436;2023-03-04T07:56:12;6.53;;;3.40;;
24435;SDS011;12616;52.470;13.436;2023-03-04T07:58:40;6.60;;;4.30;;
24435;SDS011;12616;52.470;13.436;2023-03-04T08:01:07;8.15;;;4.20;;
24435;SDS011;12616;52.470;13.436;2023-03-04T08:03:35;6.32;;;3.63;;
24435;SDS011;12616;52.470;13.436;2023-03-04T08:06:03;5.70;;;3.38;;
24435;SDS011;12616;52.470;13.436;2023-03-04T08:08:31;9.48;;;4.03;;
24435;SDS011;12616;52.470;13.436;2023-03-04T08:10:59;8.48;;;3.75;;
24435;SDS011;12616;52.470;13.436;2023-03-04T08:13:26;5.95;;;3.53;;
24435;SDS011;12616;52.470;13.436;2023-03-04T08:15:54;13.07;;;4.50;;
24435;SDS011;12616;52.470;13.436;2023-03-04T08:18:21;5.78;;;3.67;;
24435;SDS011;12616;52.470;13.436;2023-03-04T08:20:48;7.40;;;4.00;;
24435;SDS011;12616;52.470;13.436;2023-03-04T08:23:16;4.35;;;3.78;;
24435;SDS011;12616;52.470;13.436;2023-03-04T08:25:43;6.85;;;3.30;;
24435;SDS011;12616;52.470;13.436;2023-03-04T08:28:11;3.42;;;2.75;;
24435;SDS011;12616;52.470;13.436;2023-03-04T08:30:39;4.22;;;2.65;;
24435;SDS011;12616;52.470;13.436;2023-03-04T08:33:06;4.50;;;3.10;;
24435;SDS011;12616;52.470;13.436;2023-03-04T08:35:35;7.22;;;3.85;;
24435;SDS011;12616;52.470;13.436;2023-03-04T08:38:03;4.57;;;3.10;;
24435;SDS011;12616;52.470;13.436;2023-03-04T08:40:30;12.40;;;6.47;;
24435;SDS011;12616;52.470;13.436;2023-03-04T08:42:57;7.68;;;3.63;;
24435;SDS011;12616;52.470;13.436;2023-03-04T08:45:26;4.82;;;3.75;;
24435;SDS011;12616;52.470;13.436;2023-03-04T08:47:53;3.70;;;2.75;;
24435;SDS011;12616;52.470;13.436;2023-03-04T08:50:19;7.45;;;4.10;;
24435;SDS011;12616;52.470;13.436;2023-03-04T08:52:46;11.10;;;2.75;;
24435;SDS011;12616;52.470;13.436;2023-03-04T08:55:13;6.97;;;3.10;;
24435;SDS011;12616;52.470;13.436;2023-03-04T08:57:40;4.07;;;3.10;;
24435;SDS011;12616;52.470;13.436;2023-03-04T09:00:08;5.15;;;3.10;;
24435;SDS011;12616;52.470;13.436;2023-03-04T09:02:37;6.95;;;3.20;;
24435;SDS011;12616;52.470;13.436;2023-03-04T09:05:05;6.15;;;3.42;;
24435;SDS011;12616;52.470;13.436;2023-03-04T09:07:35;7.57;;;2.90;;
24435;SDS011;12616;52.470;13.436;2023-03-04T09:10:02;3.95;;;2.30;;
24435;SDS011;12616;52.470;13.436;2023-03-04T09:12:29;8.32;;;2.83;;
24435;SDS011;12616;52.470;13.436;2023-03-04T09:14:56;6.93;;;2.97;;
24435;SDS011;12616;52.470;13.436;2023-03-04T09:17:23;4.35;;;3.10;;
24435;SDS011;12616;52.470;13.436;2023-03-04T09:19:51;10.25;;;3.00;;
24435;SDS011;12616;52.470;13.436;2023-03-04T09:22:18;6.68;;;2.90;;
24435;SDS011;12616;52.470;13.436;2023-03-04T09:24:45;4.05;;;2.55;;
24435;SDS011;12616;52.470;13.436;2023-03-04T09:27:11;4.30;;;2.65;;
24435;SDS011;12616;52.470;13.436;2023-03-04T09:29:38;6.50;;;2.50;;
24435;SDS011;12616;52.470;13.436;2023-03-04T09:32:07;8.10;;;2.53;;
24435;SDS011;12616;52.470;13.436;2023-03-04T09:34:34;7.88;;;3.30;;
24435;SDS011;12616;52.470;13.436;2023-03-04T09:37:02;9.70;;;2.67;;
24435;SDS011;12616;52.470;13.436;2023-03-04T09:39:29;7.03;;;3.10;;
24435;SDS011;12616;52.470;13.436;2023-03-04T09:41:57;8.73;;;2.20;;
24435;SDS011;12616;52.470;13.436;2023-03-04T09:44:25;6.22;;;2.85;;
24435;SDS011;12616;52.470;13.436;2023-03-04T09:46:55;5.72;;;3.10;;
24435;SDS011;12616;52.470;13.436;2023-03-04T09:49:24;14.90;;;3.25;;
24435;SDS011;12616;52.470;13.436;2023-03-04T09:51:56;8.65;;;3.20;;
24435;SDS011;12616;52.470;13.436;2023-03-04T09:54:39;8.40;;;3.30;;
24435;SDS011;12616;52.470;13.436;2023-03-04T09:57:20;5.65;;;2.58;;
24435;SDS011;12616;52.470;13.436;2023-03-04T09:59:55;6.20;;;3.35;;
24435;SDS011;12616;52.470;13.436;2023-03-04T10:02:31;6.53;;;2.58;;
24435;SDS011;12616;52.470;13.436;2023-03-04T10:05:06;5.25;;;3.00;;
24435;SDS011;12616;52.470;13.436;2023-03-04T10:07:39;7.10;;;3.05;;
24435;SDS011;12616;52.470;13.436;2023-03-04T10:10:11;5.78;;;2.67;;
24435;SDS011;12616;52.470;13.436;2023-03-04T10:12:42;2.70;;;2.05;;
24435;SDS011;12616;52.470;13.436;2023-03-04T10:17:48;5.38;;;2.75;;
24435;SDS011;12616;52.470;13.436;2023-03-04T10:20:20;4.13;;;2.15;;
24435;SDS011;12616;52.470;13.436;2023-03-04T10:22:49;5.95;;;2.30;;
24435;SDS011;12616;52.470;13.436;2023-03-04T10:25:19;11.40;;;2.70;;
24435;SDS011;12616;52.470;13.436;2023-03-04T10:27:49;4.68;;;2.83;;
24435;SDS011;12616;52.470;13.436;2023-03-04T10:30:19;23.77;;;3.15;;
24435;SDS011;12616;52.470;13.436;2023-03-04T10:32:51;14.23;;;3.65;;
24435;SDS011;12616;52.470;13.436;2023-03-04T10:35:19;6.72;;;3.20;;
24435;SDS011;12616;52.470;13.436;2023-03-04T10:37:51;5.47;;;2.25;;
24435;SDS011;12616;52.470;13.436;2023-03-04T10:40:23;8.80;;;3.22;;
24435;SDS011;12616;52.470;13.436;2023-03-04T10:42:51;8.07;;;2.58;;
24435;SDS011;12616;52.470;13.436;2023-03-04T10:45:20;7.70;;;2.50;;
24435;SDS011;12616;52.470;13.436;2023-03-04T10:47:51;6.07;;;2.88;;
24435;SDS011;12616;52.470;13.436;2023-03-04T10:50:20;11.23;;;2.42;;
24435;SDS011;12616;52.470;13.436;2023-03-04T10:52:48;19.67;;;3.25;;
24435;SDS011;12616;52.470;13.436;2023-03-04T10:55:18;7.22;;;2.30;;
24435;SDS011;12616;52.470;13.436;2023-03-04T10:57:49;5.65;;;2.30;;
24435;SDS011;12616;52.470;13.436;2023-03-04T11:00:23;11.05;;;3.28;;
24435;SDS011;12616;52.470;13.436;2023-03-04T11:02:52;6.72;;;2.90;;
24435;SDS011;12616;52.470;13.436;2023-03-04T11:05:50;10.07;;;3.00;;
24435;SDS011;12616;52.470;13.436;2023-03-04T11:08:28;6.50;;;2.67;;
24435;SDS011;12616;52.470;13.436;2023-03-04T11:10:55;7.18;;;2.92;;
24435;SDS011;12616;52.470;13.436;2023-03-04T11:13:24;11.35;;;2.80;;
24435;SDS011;12616;52.470;13.436;2023-03-04T11:15:52;6.28;;;2.65;;
24435;SDS011;12616;52.470;13.436;2023-03-04T11:18:22;12.48;;;3.67;;
24435;SDS011;12616;52.470;13.436;2023-03-04T11:20:54;8.40;;;2.65;;
24435;SDS011;12616;52.470;13.436;2023-03-04T11:23:24;5.93;;;3.00;;
24435;SDS011;12616;52.470;13.436;2023-03-04T11:26:00;13.02;;;4.10;;
24435;SDS011;12616;52.470;13.436;2023-03-04T11:28:33;4.03;;;3.05;;
24435;SDS011;12616;52.470;13.436;2023-03-04T11:31:08;11.10;;;2.58;;
24435;SDS011;12616;52.470;13.436;2023-03-04T11:33:40;13.65;;;3.60;;
24435;SDS011;12616;52.470;13.436;2023-03-04T11:36:20;13.90;;;3.20;;
24435;SDS011;12616;52.470;13.436;2023-03-04T11:38:54;6.75;;;2.83;;
24435;SDS011;12616;52.470;13.436;2023-03-04T11:41:23;9.35;;;2.67;;
24435;SDS011;12616;52.470;13.436;2023-03-04T11:43:57;12.40;;;3.40;;
24435;SDS011;12616;52.470;13.436;2023-03-04T11:52:22;9.30;;;4.05;;
24435;SDS011;12616;52.470;13.436;2023-03-04T11:55:03;10.23;;;3.03;;
24435;SDS011;12616;52.470;13.436;2023-03-04T11:57:51;18.60;;;4.18;;
24435;SDS011;12616;52.470;13.436;2023-03-04T12:00:28;12.32;;;3.50;;
24435;SDS011;12616;52.470;13.436;2023-03-04T12:03:14;11.30;;;3.80;;
24435;SDS011;12616;52.470;13.436;2023-03-04T12:06:09;10.82;;;4.50;;
24435;SDS011;12616;52.470;13.436;2023-03-04T12:11:48;14.38;;;3.80;;
24435;SDS011;12616;52.470;13.436;2023-03-04T12:14:22;14.32;;;3.67;;
24435;SDS011;12616;52.470;13.436;2023-03-04T12:17:02;15.70;;;4.30;;
24435;SDS011;12616;52.470;13.436;2023-03-04T12:19:42;14.13;;;5.13;;
24435;SDS011;12616;52.470;13.436;2023-03-04T12:22:21;9.80;;;3.13;;
24435;SDS011;12616;52.470;13.436;2023-03-04T12:25:06;15.65;;;4.07;;
24435;SDS011;12616;52.470;13.436;2023-03-04T12:27:45;11.00;;;3.35;;
24435;SDS011;12616;52.470;13.436;2023-03-04T12:30:23;14.07;;;4.03;;
24435;SDS011;12616;52.470;13.436;2023-03-04T12:33:01;7.85;;;3.70;;
24435;SDS011;12616;52.470;13.436;2023-03-04T12:35:36;10.63;;;3.00;;
24435;SDS011;12616;52.470;13.436;2023-03-04T12:38:22;14.20;;;3.90;;
24435;SDS011;12616;52.470;13.436;2023-03-04T12:40:57;8.68;;;2.97;;
24435;SDS011;12616;52.470;13.436;2023-03-04T12:43:33;15.05;;;3.63;;
24435;SDS011;12616;52.470;13.436;2023-03-04T12:46:11;9.77;;;3.08;;
24435;SDS011;12616;52.470;13.436;2023-03-04T12:48:54;15.25;;;2.75;;
24435;SDS011;12616;52.470;13.436;2023-03-04T12:51:42;8.98;;;2.65;;
24435;SDS011;12616;52.470;13.436;2023-03-04T12:54:14;7.85;;;3.35;;
24435;SDS011;12616;52.470;13.436;2023-03-04T12:56:50;7.80;;;2.72;;
24435;SDS011;12616;52.470;13.436;2023-03-04T12:59:21;7.40;;;2.55;;
24435;SDS011;12616;52.470;13.436;2023-03-04T13:01:52;11.23;;;3.55;;
24435;SDS011;12616;52.470;13.436;2023-03-04T13:04:28;4.22;;;2.20;;
24435;SDS011;12616;52.470;13.436;2023-03-04T13:07:07;12.15;;;3.45;;
24435;SDS011;12616;52.470;13.436;2023-03-04T13:09:42;4.57;;;2.80;;
24435;SDS011;12616;52.470;13.436;2023-03-04T13:12:16;7.45;;;2.70;;
24435;SDS011;12616;52.470;13.436;2023-03-04T13:17:44;6.43;;;2.45;;
24435;SDS011;12616;52.470;13.436;2023-03-04T13:20:22;9.45;;;2.63;;
24435;SDS011;12616;52.470;13.436;2023-03-04T13:22:56;4.88;;;2.03;;
24435;SDS011;12616;52.470;13.436;2023-03-04T13:25:31;21.23;;;2.80;;
24435;SDS011;12616;52.470;13.436;2023-03-04T13:28:12;9.27;;;2.78;;
24435;SDS011;12616;52.470;13.436;2023-03-04T13:33:53;12.25;;;2.85;;
24435;SDS011;12616;52.470;13.436;2023-03-04T13:36:29;8.35;;;2.83;;
24435;SDS011;12616;52.470;13.436;2023-03-04T13:39:01;12.80;;;4.25;;
24435;SDS011;12616;52.470;13.436;2023-03-04T13:41:46;13.13;;;3.55;;
24435;SDS011;12616;52.470;13.436;2023-03-04T13:44:30;10.07;;;4.03;;
24435;SDS011;12616;52.470;13.436;2023-03-04T13:47:21;5.38;;;2.95;;
24435;SDS011;12616;52.470;13.436;2023-03-04T13:50:28;11.75;;;3.53;;
24435;SDS011;12616;52.470;13.436;2023-03-04T13:53:19;6.03;;;2.50;;
24435;SDS011;12616;52.470;13.436;2023-03-04T13:56:09;19.98;;;3.40;;
24435;SDS011;12616;52.470;13.436;2023-03-04T13:58:49;8.75;;;3.45;;
24435;SDS011;12616;52.470;13.436;2023-03-04T14:01:24;5.18;;;2.53;;
24435;SDS011;12616;52.470;13.436;2023-03-04T14:03:52;6.80;;;2.22;;
24435;SDS011;12616;52.470;13.436;2023-03-04T14:06:20;10.75;;;2.70;;
24435;SDS011;12616;52.470;13.436;2023-03-04T14:08:50;11.85;;;2.95;;
24435;SDS011;12616;52.470;13.436;2023-03-04T14:11:22;10.65;;;4.00;;
24435;SDS011;12616;52.470;13.436;2023-03-04T14:13:52;5.95;;;3.22;;
24435;SDS011;12616;52.470;13.436;2023-03-04T14:16:21;11.07;;;2.47;;
24435;SDS011;12616;52.470;13.436;2023-03-04T14:19:01;6.93;;;2.55;;
24435;SDS011;12616;52.470;13.436;2023-03-04T14:21:30;7.70;;;2.95;;
24435;SDS011;12616;52.470;13.436;2023-03-04T14:24:00;8.77;;;3.00;;
24435;SDS011;12616;52.470;13.436;2023-03-04T14:26:28;17.23;;;3.92;;
24435;SDS011;12616;52.470;13.436;2023-03-04T14:28:56;21.10;;;4.53;;
24435;SDS011;12616;52.470;13.436;2023-03-04T14:31:24;7.78;;;3.17;;
24435;SDS011;12616;52.470;13.436;2023-03-04T14:33:54;9.93;;;3.83;;
24435;SDS011;12616;52.470;13.436;2023-03-04T14:36:26;12.05;;;3.85;;
24435;SDS011;12616;52.470;13.436;2023-03-04T14:38:56;14.85;;;3.25;;
24435;SDS011;12616;52.470;13.436;2023-03-04T14:41:26;7.03;;;3.05;;
24435;SDS011;12616;52.470;13.436;2023-03-04T14:43:59;9.20;;;2.47;;
24435;SDS011;12616;52.470;13.436;2023-03-04T14:46:35;12.00;;;4.22;;
24435;SDS011;12616;52.470;13.436;2023-03-04T14:49:08;4.82;;;2.67;;
24435;SDS011;12616;52.470;13.436;2023-03-04T14:51:39;12.88;;;4.45;;
24435;SDS011;12616;52.470;13.436;2023-03-04T14:54:23;19.20;;;3.65;;
24435;SDS011;12616;52.470;13.436;2023-03-04T14:56:53;13.45;;;3.83;;